createdAt,value
2023-04-05T00:08:50.202Z,99909.41
2023-04-05T00:11:18.645Z,99902.78
2023-04-05T00:13:45.449Z,99908.16
2023-04-05T00:16:12.210Z,99900.41
2023-04-05T00:18:39.958Z,99897.25
2023-04-05T00:21:06.589Z,99901.25
2023-04-05T00:23:40.180Z,99894.84
2023-04-05T00:26:11.759Z,99901.38
2023-04-05T00:28:42.324Z,99892.56
2023-04-05T00:31:10.147Z,99896.97
2023-04-05T00:33:39.105Z,99901.41
2023-04-05T00:36:20.361Z,99892.13
2023-04-05T00:38:50.825Z,99899.59
2023-04-05T00:41:18.557Z,99901.81
2023-04-05T00:43:47.485Z,99901.41
2023-04-05T00:46:17.304Z,99903.47
2023-04-05T00:48:47.272Z,99901.66
2023-04-05T00:51:14.447Z,99904.25
2023-04-05T00:53:43.207Z,99907.44
2023-04-05T00:56:14.101Z,99899.94
2023-04-05T00:58:43.138Z,99904.69
2023-04-05T01:01:28.077Z,99900.22
2023-04-05T01:04:11.311Z,99892.91
2023-04-05T01:07:06.098Z,99900.78
2023-04-05T01:09:41.367Z,99903.53
2023-04-05T01:12:13.083Z,99886.34
2023-04-05T01:14:52.023Z,99893.16
2023-04-05T01:17:23.352Z,99886.44
2023-04-05T01:19:58.989Z,99889.09
2023-04-05T01:22:47.998Z,99885.91
2023-04-05T01:25:19.789Z,99882.06
2023-04-05T01:27:59.466Z,99877.53
2023-04-05T01:30:35.182Z,99878.03
2023-04-05T01:33:18.026Z,99875.19
2023-04-05T01:36:06.167Z,99880.31
2023-04-05T01:38:42.394Z,99867.69
2023-04-05T01:41:14.484Z,99861.38
2023-04-05T01:43:44.022Z,99871.75
2023-04-05T01:46:12.440Z,99872.63
2023-04-05T01:48:39.342Z,99872.50
2023-04-05T01:51:06.889Z,99875.53
2023-04-05T01:53:34.146Z,99872.53
2023-04-05T01:56:01.779Z,99874.22
2023-04-05T01:58:28.965Z,99881.81
2023-04-05T02:00:56.461Z,99875.09
2023-04-05T02:03:25.001Z,99877.44
2023-04-05T02:05:52.993Z,99863.72
2023-04-05T02:08:19.767Z,99866.47
2023-04-05T02:10:48.713Z,99876.84
2023-04-05T02:13:15.527Z,99862.50
2023-04-05T02:15:50.714Z,99872.59
2023-04-05T02:18:22.494Z,99862.81
2023-04-05T02:20:51.881Z,99856.56
2023-04-05T02:23:20.222Z,99851.03
2023-04-05T02:25:47.553Z,99849.94
2023-04-05T02:28:14.424Z,99858.41
2023-04-05T02:30:42.285Z,99867.25
2023-04-05T02:33:11.200Z,99857.28
2023-04-05T02:35:39.503Z,99854.66
2023-04-05T02:38:07.218Z,99852.72
2023-04-05T02:40:37.870Z,99855.50
2023-04-05T02:43:06.635Z,99850.72
2023-04-05T02:45:33.954Z,99854.19
2023-04-05T02:48:02.561Z,99854.59
2023-04-05T02:53:48.901Z,99843.81
2023-04-05T02:59:18.303Z,99853.09
2023-04-05T03:01:48.906Z,99856.81
2023-04-05T03:04:27.078Z,99843.81
2023-04-05T03:07:05.759Z,99849.63
2023-04-05T03:09:40.040Z,99849.75
2023-04-05T03:12:14.572Z,99854.22
2023-04-05T03:14:51.155Z,99859.63
2023-04-05T03:17:28.040Z,99856.59
2023-04-05T03:20:01.006Z,99859.78
2023-04-05T03:22:28.585Z,99848.16
2023-04-05T03:24:57.508Z,99849.44
2023-04-05T03:27:26.307Z,99860.75
2023-04-05T03:30:15.213Z,99855.38
2023-04-05T03:32:49.682Z,99857.56
2023-04-05T03:35:34.425Z,99856.22
2023-04-05T03:38:02.478Z,99845.09
2023-04-05T03:40:30.014Z,99847.38
2023-04-05T03:42:57.255Z,99845.69
2023-04-05T03:45:24.688Z,99846.53
2023-04-05T03:47:52.421Z,99848.75
2023-04-05T03:50:19.322Z,99850.66
2023-04-05T03:52:50.169Z,99847.09
2023-04-05T03:55:18.587Z,99848.44
2023-04-05T03:58:04.677Z,99850.53
2023-04-05T04:01:04.219Z,99852.47
2023-04-05T04:03:39.120Z,99849.00
2023-04-05T04:06:34.172Z,99851.88
2023-04-05T04:09:02.930Z,99854.13
2023-04-05T04:11:35.701Z,99852.06
2023-04-05T04:14:07.099Z,99844.97
2023-04-05T04:16:53.420Z,99852.00
2023-04-05T04:19:31.072Z,99846.78
2023-04-05T04:22:33.954Z,99845.41
2023-04-05T04:25:19.125Z,99850.78
2023-04-05T04:28:13.547Z,99851.81
2023-04-05T04:31:06.092Z,99853.19
2023-04-05T04:34:00.306Z,99850.16
2023-04-05T04:37:03.113Z,99847.78
2023-04-05T04:40:00.227Z,99860.66
2023-04-05T04:42:39.682Z,99863.03
2023-04-05T04:45:26.687Z,99859.69
2023-04-05T04:48:20.796Z,99867.31
2023-04-05T04:51:00.424Z,99870.47
2023-04-05T04:53:34.983Z,99863.84
2023-04-05T04:56:04.002Z,99870.34
2023-04-05T04:58:31.410Z,99870.34
2023-04-05T05:01:10.369Z,99870.06
2023-04-05T05:03:43.185Z,99869.41
2023-04-05T05:06:11.140Z,99873.25
2023-04-05T05:08:40.539Z,99875.34
2023-04-05T05:11:17.301Z,99864.41
2023-04-05T05:13:51.919Z,99871.31
2023-04-05T05:16:31.868Z,99870.75
2023-04-05T05:19:02.994Z,99863.84
2023-04-05T05:21:41.953Z,99868.06
2023-04-05T05:24:19.479Z,99872.94
2023-04-05T05:26:50.341Z,99867.50
2023-04-05T05:29:21.606Z,99862.88
2023-04-05T05:31:54.232Z,99865.31
2023-04-05T05:34:25.823Z,99859.63
2023-04-05T05:37:01.508Z,99866.28
2023-04-05T05:39:30.130Z,99858.81
2023-04-05T05:42:01.916Z,99864.38
2023-04-05T05:44:34.083Z,99864.34
2023-04-05T05:47:12.702Z,99863.63
2023-04-05T05:49:46.575Z,99867.72
2023-04-05T05:52:26.628Z,99869.69
2023-04-05T05:54:55.693Z,99856.59
2023-04-05T05:57:23.003Z,99860.97
2023-04-05T05:59:49.786Z,99862.25
2023-04-05T06:02:16.670Z,99868.63
2023-04-05T06:04:44.160Z,99862.63
2023-04-05T06:07:11.251Z,99860.13
2023-04-05T06:09:38.066Z,99849.25
2023-04-05T06:12:05.071Z,99852.75
2023-04-05T06:14:31.826Z,99855.19
2023-04-05T06:16:58.614Z,99847.84
2023-04-05T06:19:25.518Z,99845.22
2023-04-05T06:21:52.303Z,99854.00
2023-04-05T06:24:18.985Z,99856.00
2023-04-05T06:26:45.678Z,99848.47
2023-04-05T06:29:12.657Z,99862.72
2023-04-05T06:31:39.311Z,99838.88
2023-04-05T06:34:06.322Z,99859.94
2023-04-05T06:36:34.330Z,99856.00
2023-04-05T06:39:01.364Z,99855.84
2023-04-05T06:41:28.240Z,99861.47
2023-04-05T06:43:56.466Z,99863.47
2023-04-05T06:46:23.699Z,99864.78
2023-04-05T06:48:51.891Z,99873.41
2023-04-05T06:51:18.934Z,99877.56
2023-04-05T06:53:45.926Z,99872.41
2023-04-05T06:56:12.802Z,99871.09
2023-04-05T06:58:39.588Z,99865.97
2023-04-05T07:01:06.787Z,99875.38
2023-04-05T07:03:33.997Z,99864.97
2023-04-05T07:06:01.359Z,99877.34
2023-04-05T07:08:29.454Z,99862.19
2023-04-05T07:10:56.437Z,99866.47
2023-04-05T07:13:24.776Z,99873.50
2023-04-05T07:15:52.457Z,99857.69
2023-04-05T07:18:19.338Z,99863.31
2023-04-05T07:20:48.327Z,99865.47
2023-04-05T07:23:14.977Z,99868.66
2023-04-05T07:25:41.676Z,99872.53
2023-04-05T07:28:08.332Z,99868.50
2023-04-05T07:30:36.445Z,99874.81
2023-04-05T07:33:03.141Z,99883.16
2023-04-05T07:35:29.904Z,99868.50
2023-04-05T07:37:56.673Z,99868.56
2023-04-05T07:40:23.369Z,99873.28
2023-04-05T07:42:49.973Z,99872.22
2023-04-05T07:45:16.715Z,99869.72
2023-04-05T07:47:43.453Z,99862.03
2023-04-05T07:50:12.102Z,99870.63
2023-04-05T07:52:38.715Z,99868.53
2023-04-05T07:55:07.022Z,99865.06
2023-04-05T07:57:33.684Z,99854.75
2023-04-05T08:00:00.393Z,99858.22
2023-04-05T08:02:27.167Z,99858.69
2023-04-05T08:04:54.051Z,99842.19
2023-04-05T08:07:20.791Z,99854.22
2023-04-05T08:09:47.534Z,99849.06
2023-04-05T08:12:14.129Z,99843.44
2023-04-05T08:14:41.824Z,99840.28
2023-04-05T08:17:08.618Z,99850.97
2023-04-05T08:19:35.322Z,99843.34
2023-04-05T08:22:01.988Z,99846.41
2023-04-05T08:24:28.887Z,99848.44
2023-04-05T08:26:56.204Z,99846.72
2023-04-05T08:29:22.901Z,99844.38
2023-04-05T08:31:49.628Z,99856.47
2023-04-05T08:34:16.333Z,99845.44
2023-04-05T08:36:43.069Z,99839.81
2023-04-05T08:39:10.707Z,99844.38
2023-04-05T08:41:41.404Z,99845.50
2023-04-05T08:44:10.345Z,99844.00
2023-04-05T08:46:37.189Z,99838.94
2023-04-05T08:49:08.144Z,99838.09
2023-04-05T08:51:41.289Z,99836.25
2023-04-05T08:54:08.216Z,99824.88
2023-04-05T08:56:36.436Z,99831.69
2023-04-05T08:59:07.709Z,99824.38
2023-04-05T09:01:38.509Z,99834.41
2023-04-05T09:04:13.003Z,99831.06
2023-04-05T09:06:39.866Z,99824.31
2023-04-05T09:09:08.522Z,99827.75
2023-04-05T09:11:36.066Z,99809.44
2023-04-05T09:14:05.832Z,99819.72
2023-04-05T09:16:34.299Z,99816.22
2023-04-05T09:19:01.171Z,99815.59
2023-04-05T09:21:29.398Z,99806.31
2023-04-05T09:23:56.413Z,99797.03
2023-04-05T09:26:25.446Z,99810.38
2023-04-05T09:28:56.544Z,99800.00
2023-04-05T09:31:33.829Z,99806.19
2023-04-05T09:34:06.926Z,99793.56
2023-04-05T09:36:34.359Z,99803.34
2023-04-05T09:39:08.907Z,99787.56
2023-04-05T09:41:36.479Z,99786.88
2023-04-05T09:44:03.498Z,99786.94
2023-04-05T09:46:37.313Z,99782.75
2023-04-05T09:49:07.018Z,99783.47
2023-04-05T09:51:35.919Z,99785.78
2023-04-05T09:54:07.208Z,99787.19
2023-04-05T09:56:36.973Z,99768.66
2023-04-05T09:59:11.549Z,99775.13
2023-04-05T10:01:41.532Z,99771.56
2023-04-05T10:04:08.799Z,99769.72
2023-04-05T10:06:36.275Z,99771.63
2023-04-05T10:09:05.025Z,99770.22
2023-04-05T10:11:36.336Z,99772.75
2023-04-05T10:14:08.047Z,99766.13
2023-04-05T10:16:44.460Z,99748.28
2023-04-05T10:19:16.962Z,99746.25
2023-04-05T10:21:44.573Z,99752.47
2023-04-05T10:24:40.749Z,99747.50
2023-04-05T10:27:47.485Z,99746.59
2023-04-05T10:30:16.180Z,99743.94
2023-04-05T10:33:12.485Z,99733.75
2023-04-05T10:36:06.188Z,99746.41
2023-04-05T10:38:45.955Z,99724.56
2023-04-05T10:41:14.760Z,99742.53
2023-04-05T10:43:42.646Z,99730.13
2023-04-05T10:46:11.148Z,99734.75
2023-04-05T10:48:41.210Z,99729.66
2023-04-05T10:51:07.936Z,99723.56
2023-04-05T10:53:34.671Z,99718.81
2023-04-05T10:56:02.027Z,99729.50
2023-04-05T10:58:29.503Z,99713.69
2023-04-05T11:00:56.565Z,99721.41
2023-04-05T11:04:11.821Z,99715.56
2023-04-05T11:06:39.263Z,99704.03
2023-04-05T11:09:07.635Z,99703.88
2023-04-05T11:11:43.802Z,99714.28
2023-04-05T11:14:25.374Z,99702.47
2023-04-05T11:16:57.122Z,99700.59
2023-04-05T11:20:03.862Z,99699.53
2023-04-05T11:22:31.150Z,99692.91
2023-04-05T11:25:01.853Z,99691.47
2023-04-05T11:27:41.108Z,99694.66
2023-04-05T11:30:08.430Z,99672.97
2023-04-05T11:32:45.606Z,99687.63
2023-04-05T11:35:18.160Z,99692.50
2023-04-05T11:37:59.939Z,99692.31
2023-04-05T11:40:31.516Z,99692.91
2023-04-05T11:43:10.142Z,99696.88
2023-04-05T11:45:38.820Z,99686.34
2023-04-05T11:48:10.289Z,99679.75
2023-04-05T11:50:38.656Z,99677.63
2023-04-05T11:53:15.807Z,99683.88
2023-04-05T11:55:44.399Z,99679.38
2023-04-05T11:58:15.544Z,99674.63
2023-04-05T12:00:43.072Z,99686.50
2023-04-05T12:03:16.341Z,99667.25
2023-04-05T12:05:50.029Z,99670.06
2023-04-05T12:08:18.004Z,99668.47
2023-04-05T12:10:45.015Z,99652.44
2023-04-05T12:13:11.741Z,99663.06
2023-04-05T12:15:40.804Z,99660.06
2023-04-05T12:18:13.651Z,99653.25
2023-04-05T12:20:40.646Z,99652.69
2023-04-05T12:23:07.383Z,99650.31
2023-04-05T12:25:34.127Z,99656.81
2023-04-05T12:28:09.284Z,99652.66
2023-04-05T12:30:38.643Z,99649.13
2023-04-05T12:33:09.742Z,99656.47
2023-04-05T12:35:36.572Z,99653.00
2023-04-05T12:38:05.696Z,99643.75
2023-04-05T12:40:34.264Z,99641.22
2023-04-05T12:43:04.575Z,99645.78
2023-04-05T12:45:40.300Z,99635.13
2023-04-05T12:48:11.170Z,99631.00
2023-04-05T12:50:44.299Z,99638.25
2023-04-05T12:53:18.060Z,99628.63
2023-04-05T12:55:50.706Z,99637.22
2023-04-05T12:58:20.007Z,99648.75
2023-04-05T13:00:47.836Z,99636.34
2023-04-05T13:03:21.082Z,99632.66
2023-04-05T13:05:52.036Z,99619.00
2023-04-05T13:08:20.502Z,99622.63
2023-04-05T13:10:51.091Z,99615.94
2023-04-05T13:13:23.258Z,99628.16
2023-04-05T13:15:52.062Z,99620.66
2023-04-05T13:18:20.793Z,99621.09
2023-04-05T13:20:48.224Z,99618.22
2023-04-05T13:23:15.074Z,99617.00
2023-04-05T13:25:43.047Z,99617.09
2023-04-05T13:28:10.635Z,99630.22
2023-04-05T13:30:38.065Z,99614.03
2023-04-05T13:33:05.139Z,99612.56
2023-04-05T13:35:32.426Z,99610.16
2023-04-05T13:38:01.111Z,99617.00
2023-04-05T13:40:29.323Z,99606.91
2023-04-05T13:42:55.985Z,99612.00
2023-04-05T13:45:22.646Z,99603.78
2023-04-05T13:47:49.525Z,99611.88
2023-04-05T13:50:16.489Z,99608.09
2023-04-05T13:52:43.401Z,99602.91
2023-04-05T13:55:10.268Z,99610.97
2023-04-05T13:57:37.648Z,99594.00
2023-04-05T14:00:08.253Z,99609.41
2023-04-05T14:02:41.878Z,99601.53
2023-04-05T14:05:10.401Z,99595.03
2023-04-05T14:07:37.664Z,99605.00
2023-04-05T14:10:06.919Z,99597.84
2023-04-05T14:12:34.753Z,99603.41
2023-04-05T14:15:01.807Z,99596.75
2023-04-05T14:17:28.686Z,99601.03
2023-04-05T14:19:55.494Z,99601.31
2023-04-05T14:22:22.500Z,99601.13
2023-04-05T14:24:49.463Z,99609.03
2023-04-05T14:27:16.514Z,99596.81
2023-04-05T14:29:46.022Z,99594.53
2023-04-05T14:32:13.668Z,99594.16
2023-04-05T14:34:40.537Z,99601.47
2023-04-05T14:37:08.083Z,99607.50
2023-04-05T14:39:36.228Z,99609.81
2023-04-05T14:42:04.724Z,99608.09
2023-04-05T14:44:31.636Z,99607.09
2023-04-05T14:46:59.032Z,99602.91
2023-04-05T14:49:26.129Z,99606.66
2023-04-05T14:51:52.875Z,99613.63
2023-04-05T14:54:20.325Z,99613.41
2023-04-05T14:56:49.739Z,99613.19
2023-04-05T14:59:17.088Z,99610.97
2023-04-05T15:01:46.078Z,99612.16
2023-04-05T15:04:13.353Z,99597.91
2023-04-05T15:06:40.463Z,99607.72
2023-04-05T15:09:07.234Z,99596.06
2023-04-05T15:11:40.337Z,99609.19
2023-04-05T15:14:08.549Z,99613.38
2023-04-05T15:16:38.517Z,99604.25
2023-04-05T15:19:05.313Z,99613.56
2023-04-05T15:21:32.667Z,99606.78
2023-04-05T15:23:59.458Z,99603.03
2023-04-05T15:26:27.574Z,99611.50
2023-04-05T15:28:54.403Z,99614.63
2023-04-05T15:31:21.124Z,99620.59
2023-04-05T15:33:47.857Z,99616.50
2023-04-05T15:36:15.628Z,99611.53
2023-04-05T15:38:43.054Z,99617.47
2023-04-05T15:41:12.234Z,99622.19
2023-04-05T15:43:40.731Z,99618.59
2023-04-05T15:46:09.051Z,99617.16
2023-04-05T15:48:35.928Z,99632.56
2023-04-05T15:51:03.082Z,99618.03
2023-04-05T15:53:29.776Z,99631.50
2023-04-05T15:55:58.398Z,99618.25
2023-04-05T15:58:25.548Z,99624.03
2023-04-05T16:00:52.487Z,99624.03
2023-04-05T16:03:19.448Z,99621.78
2023-04-05T16:05:46.702Z,99624.00
2023-04-05T16:08:13.500Z,99634.03
2023-04-05T16:10:40.406Z,99628.47
2023-04-05T16:13:08.260Z,99633.56
2023-04-05T16:15:35.101Z,99635.19
2023-04-05T16:18:02.068Z,99635.72
2023-04-05T16:20:30.190Z,99635.13
2023-04-05T16:22:57.149Z,99625.44
2023-04-05T16:25:25.042Z,99633.31
2023-04-05T16:27:52.094Z,99626.78
2023-04-05T16:30:21.388Z,99633.13
2023-04-05T16:32:51.272Z,99630.66
2023-04-05T16:35:36.852Z,99628.03
2023-04-05T16:38:23.389Z,99625.66
2023-04-05T16:41:09.033Z,99626.50
2023-04-05T16:43:54.878Z,99633.47
2023-04-05T16:46:40.551Z,99624.03
2023-04-05T16:49:27.310Z,99630.41
2023-04-05T16:52:12.934Z,99627.50
2023-04-05T16:54:59.431Z,99643.50
2023-04-05T16:57:45.680Z,99647.91
2023-04-05T17:00:31.326Z,99635.50
2023-04-05T17:03:17.927Z,99636.53
2023-04-05T17:06:03.486Z,99645.22
2023-04-05T17:08:50.593Z,99647.63
2023-04-05T17:11:36.161Z,99644.50
2023-04-05T17:14:21.574Z,99655.09
2023-04-05T17:17:08.323Z,99651.84
2023-04-05T17:19:56.132Z,99655.84
2023-04-05T17:22:44.396Z,99655.69
2023-04-05T17:25:31.401Z,99659.75
2023-04-05T17:28:16.678Z,99655.41
2023-04-05T17:31:04.832Z,99656.59
2023-04-05T17:33:53.080Z,99651.06
2023-04-05T17:36:40.972Z,99659.22
2023-04-05T17:39:26.670Z,99667.19
2023-04-05T17:42:16.209Z,99661.22
2023-04-05T17:45:01.498Z,99666.41
2023-04-05T17:47:46.932Z,99663.59
2023-04-05T17:50:33.147Z,99672.72
2023-04-05T17:53:18.381Z,99672.94
2023-04-05T17:56:04.108Z,99668.50
2023-04-05T17:58:49.757Z,99675.09
2023-04-05T18:01:37.613Z,99672.44
2023-04-05T18:04:24.675Z,99684.03
2023-04-05T18:07:09.967Z,99670.91
2023-04-05T18:10:01.092Z,99680.72
2023-04-05T18:12:46.833Z,99681.44
2023-04-05T18:15:35.398Z,99692.31
2023-04-05T18:18:21.567Z,99686.69
2023-04-05T18:21:32.512Z,99688.69
2023-04-05T18:24:18.621Z,99691.16
2023-04-05T18:27:08.235Z,99703.03
2023-04-05T18:29:53.941Z,99699.41
2023-04-05T18:32:41.472Z,99701.38
2023-04-05T18:35:27.357Z,99710.47
2023-04-05T18:38:15.572Z,99712.00
2023-04-05T18:41:04.614Z,99709.72
2023-04-05T18:43:54.084Z,99714.38
2023-04-05T18:46:39.575Z,99712.16
2023-04-05T18:49:26.165Z,99714.19
2023-04-05T18:52:11.555Z,99713.66
2023-04-05T18:54:58.640Z,99721.41
2023-04-05T18:57:44.143Z,99727.09
2023-04-05T19:00:32.497Z,99722.25
2023-04-05T19:03:17.993Z,99721.69
2023-04-05T19:06:03.184Z,99713.00
2023-04-05T19:08:48.618Z,99719.25
2023-04-05T19:11:33.770Z,99710.56
2023-04-05T19:14:19.610Z,99716.16
2023-04-05T19:17:04.969Z,99716.38
2023-04-05T19:19:50.709Z,99719.59
2023-04-05T19:22:36.244Z,99724.19
2023-04-05T19:25:21.525Z,99723.09
2023-04-05T19:28:08.558Z,99718.25
2023-04-05T19:30:54.633Z,99720.09
2023-04-05T19:33:40.782Z,99718.06
2023-04-05T19:36:29.557Z,99715.16
2023-04-05T19:39:15.419Z,99715.44
2023-04-05T19:42:01.177Z,99728.25
2023-04-05T19:44:51.322Z,99717.22
2023-04-05T19:47:43.459Z,99721.09
2023-04-05T19:50:34.994Z,99725.91
2023-04-05T19:53:40.732Z,99727.38
2023-04-05T19:56:32.024Z,99720.56
2023-04-05T19:59:32.778Z,99727.50
2023-04-05T20:02:44.771Z,99728.50
2023-04-05T20:05:14.333Z,99726.69
2023-04-05T20:07:41.196Z,99726.06
2023-04-05T20:10:15.019Z,99730.28
2023-04-05T20:12:41.777Z,99725.06
2023-04-05T20:15:12.418Z,99730.19
2023-04-05T20:17:42.428Z,99728.22
2023-04-05T20:20:09.827Z,99722.13
2023-04-05T20:22:37.195Z,99712.75
2023-04-05T20:25:36.834Z,99714.59
2023-04-05T20:28:26.888Z,99714.97
2023-04-05T20:30:54.549Z,99712.50
2023-04-05T20:33:39.741Z,99710.88
2023-04-05T20:36:12.631Z,99710.59
2023-04-05T20:38:43.205Z,99709.78
2023-04-05T20:41:11.619Z,99701.88
2023-04-05T20:43:39.056Z,99715.75
2023-04-05T20:46:06.631Z,99713.97
2023-04-05T20:48:35.070Z,99712.31
2023-04-05T20:51:04.668Z,99713.97
2023-04-05T20:53:31.375Z,99710.84
2023-04-05T20:55:59.359Z,99710.38
2023-04-05T20:58:27.464Z,99710.03
2023-04-05T21:00:54.771Z,99706.06
2023-04-05T21:03:22.000Z,99708.56
2023-04-05T21:05:49.098Z,99713.50
2023-04-05T21:08:16.395Z,99709.03
2023-04-05T21:10:43.069Z,99706.72
2023-04-05T21:13:09.804Z,99704.69
2023-04-05T21:15:36.699Z,99708.03
2023-04-05T21:18:05.998Z,99700.25
2023-04-05T21:20:34.451Z,99710.75
2023-04-05T21:23:04.067Z,99710.59
2023-04-05T21:29:08.723Z,99707.59
2023-04-05T21:31:35.617Z,99709.34
2023-04-05T21:34:03.575Z,99717.22
2023-04-05T21:36:31.082Z,99710.41
2023-04-05T21:38:57.737Z,99710.25
2023-04-05T21:41:24.369Z,99712.41
2023-04-05T21:43:51.186Z,99714.44
2023-04-05T21:46:19.405Z,99709.97
2023-04-05T21:48:47.210Z,99707.78
2023-04-05T21:51:13.797Z,99704.88
2023-04-05T21:53:40.436Z,99710.06
2023-04-05T21:56:07.067Z,99703.69
2023-04-05T21:58:33.665Z,99713.88
2023-04-05T22:01:00.441Z,99705.00
2023-04-05T22:03:27.151Z,99707.59
2023-04-05T22:05:53.773Z,99711.94
2023-04-05T22:08:20.650Z,99707.69
2023-04-05T22:10:47.555Z,99709.47
2023-04-05T22:13:14.160Z,99709.72
2023-04-05T22:15:40.963Z,99701.06
2023-04-05T22:18:07.574Z,99705.69
2023-04-05T22:20:34.228Z,99707.63
2023-04-05T22:23:01.182Z,99710.84
2023-04-05T22:25:29.037Z,99710.19
2023-04-05T22:27:59.892Z,99705.97
2023-04-05T22:30:28.573Z,99707.41
2023-04-05T22:32:55.566Z,99705.97
2023-04-05T22:35:22.365Z,99708.22
2023-04-05T22:37:49.023Z,99703.59
2023-04-05T22:40:15.981Z,99701.03
2023-04-05T22:42:42.704Z,99712.66
2023-04-05T22:45:12.732Z,99701.28
2023-04-05T22:47:39.514Z,99709.13
2023-04-05T22:50:07.252Z,99707.63
2023-04-05T22:52:33.932Z,99709.44
2023-04-05T22:55:01.445Z,99709.13
2023-04-05T22:57:29.195Z,99710.72
2023-04-05T22:59:55.915Z,99706.69
2023-04-05T23:02:23.309Z,99707.69
2023-04-05T23:04:50.774Z,99709.94
2023-04-05T23:07:17.532Z,99708.56
2023-04-05T23:09:44.177Z,99707.19
2023-04-05T23:12:11.559Z,99711.09
2023-04-05T23:14:38.212Z,99716.09
2023-04-05T23:17:05.455Z,99711.97
2023-04-05T23:19:32.341Z,99711.88
2023-04-05T23:21:59.117Z,99708.81
2023-04-05T23:24:26.099Z,99712.72
2023-04-05T23:26:52.805Z,99711.03
2023-04-05T23:29:19.516Z,99708.72
2023-04-05T23:31:48.079Z,99707.63
2023-04-05T23:34:14.731Z,99699.91
2023-04-05T23:36:41.351Z,99690.25
2023-04-05T23:39:08.343Z,99697.09
2023-04-05T23:41:35.142Z,99694.25
2023-04-05T23:44:01.762Z,99700.91
2023-04-05T23:46:28.482Z,99695.94
2023-04-05T23:48:55.104Z,99702.69
2023-04-05T23:51:21.783Z,99701.03
2023-04-05T23:53:48.419Z,99698.75
2023-04-05T23:56:15.552Z,99704.84
2023-04-05T23:58:42.375Z,99688.69
